sensor_id;sensor_type;location;lat;lon;timestamp;P1;durP1;ratioP1;P2;durP2;ratioP2
21798;SDS011;24973;47.178;15.316;2023-04-07T00:01:10;5.00;;;2.97;;
21798;SDS011;24973;47.178;15.316;2023-04-07T00:03:59;5.73;;;3.23;;
21798;SDS011;24973;47.178;15.316;2023-04-07T00:06:48;4.87;;;3.47;;
21798;SDS011;24973;47.178;15.316;2023-04-07T00:09:36;4.00;;;3.50;;
21798;SDS011;24973;47.178;15.316;2023-04-07T00:12:25;4.63;;;3.07;;
21798;SDS011;24973;47.178;15.316;2023-04-07T00:15:14;4.17;;;3.53;;
21798;SDS011;24973;47.178;15.316;2023-04-07T00:18:04;4.97;;;2.87;;
21798;SDS011;24973;47.178;15.316;2023-04-07T00:20:53;3.47;;;3.13;;
21798;SDS011;24973;47.178;15.316;2023-04-07T00:23:41;3.67;;;3.23;;
21798;SDS011;24973;47.178;15.316;2023-04-07T00:26:30;5.77;;;3.27;;
21798;SDS011;24973;47.178;15.316;2023-04-07T00:29:19;4.27;;;3.13;;
21798;SDS011;24973;47.178;15.316;2023-04-07T00:32:08;6.40;;;3.90;;
21798;SDS011;24973;47.178;15.316;2023-04-07T00:34:58;2.97;;;2.67;;
21798;SDS011;24973;47.178;15.316;2023-04-07T00:37:46;5.20;;;3.70;;
21798;SDS011;24973;47.178;15.316;2023-04-07T00:40:35;3.63;;;2.97;;
21798;SDS011;24973;47.178;15.316;2023-04-07T00:43:24;3.57;;;3.20;;
21798;SDS011;24973;47.178;15.316;2023-04-07T00:46:13;3.23;;;2.90;;
21798;SDS011;24973;47.178;15.316;2023-04-07T00:49:02;3.00;;;2.73;;
21798;SDS011;24973;47.178;15.316;2023-04-07T00:51:52;4.10;;;3.70;;
21798;SDS011;24973;47.178;15.316;2023-04-07T00:54:41;6.97;;;4.47;;
21798;SDS011;24973;47.178;15.316;2023-04-07T00:57:32;3.87;;;3.57;;
21798;SDS011;24973;47.178;15.316;2023-04-07T01:00:20;3.40;;;3.10;;
21798;SDS011;24973;47.178;15.316;2023-04-07T01:03:11;4.47;;;4.07;;
21798;SDS011;24973;47.178;15.316;2023-04-07T01:06:09;4.97;;;3.07;;
21798;SDS011;24973;47.178;15.316;2023-04-07T01:09:04;4.23;;;3.40;;
21798;SDS011;24973;47.178;15.316;2023-04-07T01:12:04;5.50;;;3.47;;
21798;SDS011;24973;47.178;15.316;2023-04-07T01:15:04;4.17;;;3.10;;
21798;SDS011;24973;47.178;15.316;2023-04-07T01:17:58;3.90;;;3.40;;
21798;SDS011;24973;47.178;15.316;2023-04-07T01:20:55;4.93;;;3.97;;
21798;SDS011;24973;47.178;15.316;2023-04-07T01:24:04;4.93;;;3.73;;
21798;SDS011;24973;47.178;15.316;2023-04-07T01:27:13;4.20;;;3.03;;
21798;SDS011;24973;47.178;15.316;2023-04-07T01:30:13;4.60;;;3.53;;
21798;SDS011;24973;47.178;15.316;2023-04-07T01:33:03;4.63;;;3.60;;
21798;SDS011;24973;47.178;15.316;2023-04-07T01:35:54;5.50;;;4.27;;
21798;SDS011;24973;47.178;15.316;2023-04-07T01:38:44;4.33;;;4.00;;
21798;SDS011;24973;47.178;15.316;2023-04-07T01:41:34;5.50;;;4.17;;
21798;SDS011;24973;47.178;15.316;2023-04-07T01:44:24;4.57;;;3.53;;
21798;SDS011;24973;47.178;15.316;2023-04-07T01:47:15;4.00;;;3.40;;
21798;SDS011;24973;47.178;15.316;2023-04-07T01:50:06;7.27;;;3.80;;
21798;SDS011;24973;47.178;15.316;2023-04-07T01:52:56;9.13;;;4.30;;
21798;SDS011;24973;47.178;15.316;2023-04-07T01:55:45;4.00;;;3.53;;
21798;SDS011;24973;47.178;15.316;2023-04-07T01:58:34;3.70;;;3.37;;
21798;SDS011;24973;47.178;15.316;2023-04-07T02:01:23;5.23;;;3.00;;
21798;SDS011;24973;47.178;15.316;2023-04-07T02:04:14;4.00;;;2.77;;
21798;SDS011;24973;47.178;15.316;2023-04-07T02:07:09;4.57;;;3.90;;
21798;SDS011;24973;47.178;15.316;2023-04-07T02:10:04;9.73;;;3.27;;
21798;SDS011;24973;47.178;15.316;2023-04-07T02:12:57;8.27;;;3.93;;
21798;SDS011;24973;47.178;15.316;2023-04-07T02:15:48;3.93;;;2.87;;
21798;SDS011;24973;47.178;15.316;2023-04-07T02:18:38;6.93;;;4.03;;
21798;SDS011;24973;47.178;15.316;2023-04-07T02:21:29;10.20;;;3.70;;
21798;SDS011;24973;47.178;15.316;2023-04-07T02:24:18;4.03;;;3.07;;
21798;SDS011;24973;47.178;15.316;2023-04-07T02:27:08;3.37;;;3.07;;
21798;SDS011;24973;47.178;15.316;2023-04-07T02:29:57;4.70;;;4.30;;
21798;SDS011;24973;47.178;15.316;2023-04-07T02:32:46;5.70;;;3.73;;
21798;SDS011;24973;47.178;15.316;2023-04-07T02:35:35;4.27;;;3.73;;
21798;SDS011;24973;47.178;15.316;2023-04-07T02:38:25;3.43;;;3.13;;
21798;SDS011;24973;47.178;15.316;2023-04-07T02:41:14;4.37;;;3.73;;
21798;SDS011;24973;47.178;15.316;2023-04-07T02:44:04;4.90;;;3.37;;
21798;SDS011;24973;47.178;15.316;2023-04-07T02:46:52;3.97;;;2.93;;
21798;SDS011;24973;47.178;15.316;2023-04-07T02:49:41;4.03;;;3.43;;
21798;SDS011;24973;47.178;15.316;2023-04-07T02:52:30;6.27;;;4.07;;
21798;SDS011;24973;47.178;15.316;2023-04-07T02:55:21;9.33;;;4.53;;
21798;SDS011;24973;47.178;15.316;2023-04-07T02:58:10;5.00;;;3.73;;
21798;SDS011;24973;47.178;15.316;2023-04-07T03:00:59;4.03;;;3.60;;
21798;SDS011;24973;47.178;15.316;2023-04-07T03:03:48;4.87;;;4.13;;
21798;SDS011;24973;47.178;15.316;2023-04-07T03:06:37;5.00;;;3.40;;
21798;SDS011;24973;47.178;15.316;2023-04-07T03:09:26;6.57;;;4.23;;
21798;SDS011;24973;47.178;15.316;2023-04-07T03:12:16;4.93;;;3.87;;
21798;SDS011;24973;47.178;15.316;2023-04-07T03:15:06;4.03;;;3.40;;
21798;SDS011;24973;47.178;15.316;2023-04-07T03:17:55;3.83;;;3.53;;
21798;SDS011;24973;47.178;15.316;2023-04-07T03:20:46;8.07;;;4.37;;
21798;SDS011;24973;47.178;15.316;2023-04-07T03:23:35;4.93;;;4.07;;
21798;SDS011;24973;47.178;15.316;2023-04-07T03:26:24;9.47;;;4.27;;
21798;SDS011;24973;47.178;15.316;2023-04-07T03:29:14;3.47;;;3.17;;
21798;SDS011;24973;47.178;15.316;2023-04-07T03:32:03;5.97;;;3.73;;
21798;SDS011;24973;47.178;15.316;2023-04-07T03:34:52;6.03;;;4.60;;
21798;SDS011;24973;47.178;15.316;2023-04-07T03:37:42;4.93;;;3.73;;
21798;SDS011;24973;47.178;15.316;2023-04-07T03:40:30;6.33;;;4.17;;
21798;SDS011;24973;47.178;15.316;2023-04-07T03:43:21;5.83;;;4.23;;
21798;SDS011;24973;47.178;15.316;2023-04-07T03:46:11;4.00;;;3.63;;
21798;SDS011;24973;47.178;15.316;2023-04-07T03:49:00;4.50;;;3.90;;
21798;SDS011;24973;47.178;15.316;2023-04-07T03:51:49;5.77;;;3.30;;
21798;SDS011;24973;47.178;15.316;2023-04-07T03:54:38;5.60;;;3.63;;
21798;SDS011;24973;47.178;15.316;2023-04-07T03:57:27;3.50;;;3.20;;
21798;SDS011;24973;47.178;15.316;2023-04-07T04:00:16;4.73;;;4.10;;
21798;SDS011;24973;47.178;15.316;2023-04-07T04:03:07;7.60;;;4.70;;
21798;SDS011;24973;47.178;15.316;2023-04-07T04:05:56;8.10;;;4.00;;
21798;SDS011;24973;47.178;15.316;2023-04-07T04:08:45;6.53;;;4.10;;
21798;SDS011;24973;47.178;15.316;2023-04-07T04:11:34;6.90;;;4.50;;
21798;SDS011;24973;47.178;15.316;2023-04-07T04:14:23;6.03;;;4.20;;
21798;SDS011;24973;47.178;15.316;2023-04-07T04:17:12;5.37;;;4.47;;
21798;SDS011;24973;47.178;15.316;2023-04-07T04:20:02;10.20;;;4.43;;
21798;SDS011;24973;47.178;15.316;2023-04-07T04:22:52;10.47;;;4.13;;
21798;SDS011;24973;47.178;15.316;2023-04-07T04:25:41;5.47;;;4.33;;
21798;SDS011;24973;47.178;15.316;2023-04-07T04:28:30;4.17;;;3.60;;
21798;SDS011;24973;47.178;15.316;2023-04-07T04:31:19;6.40;;;4.43;;
21798;SDS011;24973;47.178;15.316;2023-04-07T04:34:08;7.70;;;5.20;;
21798;SDS011;24973;47.178;15.316;2023-04-07T04:36:58;4.97;;;3.90;;
21798;SDS011;24973;47.178;15.316;2023-04-07T04:39:47;7.43;;;4.33;;
21798;SDS011;24973;47.178;15.316;2023-04-07T04:42:36;5.63;;;3.70;;
21798;SDS011;24973;47.178;15.316;2023-04-07T04:45:25;9.47;;;4.60;;
21798;SDS011;24973;47.178;15.316;2023-04-07T04:48:14;5.00;;;4.50;;
21798;SDS011;24973;47.178;15.316;2023-04-07T04:51:04;9.23;;;4.37;;
21798;SDS011;24973;47.178;15.316;2023-04-07T04:53:57;5.67;;;4.93;;
21798;SDS011;24973;47.178;15.316;2023-04-07T04:56:47;4.80;;;3.57;;
21798;SDS011;24973;47.178;15.316;2023-04-07T04:59:36;4.83;;;3.70;;
21798;SDS011;24973;47.178;15.316;2023-04-07T05:02:25;3.67;;;3.37;;
21798;SDS011;24973;47.178;15.316;2023-04-07T05:05:14;4.27;;;3.80;;
21798;SDS011;24973;47.178;15.316;2023-04-07T05:08:03;6.53;;;4.00;;
21798;SDS011;24973;47.178;15.316;2023-04-07T05:10:54;5.10;;;4.60;;
21798;SDS011;24973;47.178;15.316;2023-04-07T05:13:43;4.23;;;3.70;;
21798;SDS011;24973;47.178;15.316;2023-04-07T05:16:32;4.00;;;3.60;;
21798;SDS011;24973;47.178;15.316;2023-04-07T05:19:21;4.43;;;3.97;;
21798;SDS011;24973;47.178;15.316;2023-04-07T05:22:10;4.90;;;3.60;;
21798;SDS011;24973;47.178;15.316;2023-04-07T05:24:59;4.70;;;4.17;;
21798;SDS011;24973;47.178;15.316;2023-04-07T05:27:50;4.00;;;3.40;;
21798;SDS011;24973;47.178;15.316;2023-04-07T05:30:39;4.77;;;4.27;;
21798;SDS011;24973;47.178;15.316;2023-04-07T05:33:28;18.00;;;13.75;;
21798;SDS011;24973;47.178;15.316;2023-04-07T05:36:17;9.17;;;7.87;;
21798;SDS011;24973;47.178;15.316;2023-04-07T05:39:06;6.10;;;4.60;;
21798;SDS011;24973;47.178;15.316;2023-04-07T05:41:55;13.47;;;5.67;;
21798;SDS011;24973;47.178;15.316;2023-04-07T05:44:45;10.93;;;4.50;;
21798;SDS011;24973;47.178;15.316;2023-04-07T05:47:34;8.27;;;4.73;;
21798;SDS011;24973;47.178;15.316;2023-04-07T05:50:23;5.33;;;4.53;;
21798;SDS011;24973;47.178;15.316;2023-04-07T05:53:12;13.10;;;4.20;;
21798;SDS011;24973;47.178;15.316;2023-04-07T05:56:01;7.37;;;3.90;;
21798;SDS011;24973;47.178;15.316;2023-04-07T05:58:50;9.67;;;4.17;;
21798;SDS011;24973;47.178;15.316;2023-04-07T06:01:41;5.23;;;3.30;;
21798;SDS011;24973;47.178;15.316;2023-04-07T06:04:30;4.47;;;3.90;;
21798;SDS011;24973;47.178;15.316;2023-04-07T06:07:20;5.83;;;4.47;;
21798;SDS011;24973;47.178;15.316;2023-04-07T06:10:10;7.50;;;6.37;;
21798;SDS011;24973;47.178;15.316;2023-04-07T06:12:58;10.60;;;6.67;;
21798;SDS011;24973;47.178;15.316;2023-04-07T06:15:47;9.50;;;8.37;;
21798;SDS011;24973;47.178;15.316;2023-04-07T06:18:38;13.80;;;11.30;;
21798;SDS011;24973;47.178;15.316;2023-04-07T06:21:27;14.17;;;10.37;;
21798;SDS011;24973;47.178;15.316;2023-04-07T06:24:17;12.43;;;9.87;;
21798;SDS011;24973;47.178;15.316;2023-04-07T06:27:08;10.13;;;6.70;;
21798;SDS011;24973;47.178;15.316;2023-04-07T06:29:57;6.10;;;4.70;;
21798;SDS011;24973;47.178;15.316;2023-04-07T06:32:46;6.57;;;4.60;;
21798;SDS011;24973;47.178;15.316;2023-04-07T06:35:37;6.07;;;5.17;;
21798;SDS011;24973;47.178;15.316;2023-04-07T06:38:27;6.00;;;4.87;;
21798;SDS011;24973;47.178;15.316;2023-04-07T06:41:16;12.87;;;5.83;;
21798;SDS011;24973;47.178;15.316;2023-04-07T06:44:05;9.23;;;6.80;;
21798;SDS011;24973;47.178;15.316;2023-04-07T06:46:55;8.53;;;6.00;;
21798;SDS011;24973;47.178;15.316;2023-04-07T06:49:43;10.00;;;6.13;;
21798;SDS011;24973;47.178;15.316;2023-04-07T06:52:34;6.43;;;5.13;;
21798;SDS011;24973;47.178;15.316;2023-04-07T06:55:23;7.43;;;4.70;;
21798;SDS011;24973;47.178;15.316;2023-04-07T06:58:12;6.77;;;5.83;;
21798;SDS011;24973;47.178;15.316;2023-04-07T07:01:01;12.23;;;7.10;;
21798;SDS011;24973;47.178;15.316;2023-04-07T07:03:51;14.57;;;8.07;;
21798;SDS011;24973;47.178;15.316;2023-04-07T07:06:40;13.27;;;8.70;;
21798;SDS011;24973;47.178;15.316;2023-04-07T07:09:30;5.60;;;5.10;;
21798;SDS011;24973;47.178;15.316;2023-04-07T07:12:19;6.63;;;5.07;;
21798;SDS011;24973;47.178;15.316;2023-04-07T07:15:09;6.17;;;5.50;;
21798;SDS011;24973;47.178;15.316;2023-04-07T07:17:58;7.27;;;5.17;;
21798;SDS011;24973;47.178;15.316;2023-04-07T07:20:47;7.40;;;5.37;;
21798;SDS011;24973;47.178;15.316;2023-04-07T07:23:36;6.47;;;4.37;;
21798;SDS011;24973;47.178;15.316;2023-04-07T07:26:26;5.50;;;4.93;;
21798;SDS011;24973;47.178;15.316;2023-04-07T07:29:15;5.67;;;4.83;;
21798;SDS011;24973;47.178;15.316;2023-04-07T07:32:04;6.73;;;5.70;;
21798;SDS011;24973;47.178;15.316;2023-04-07T07:34:53;14.13;;;12.70;;
21798;SDS011;24973;47.178;15.316;2023-04-07T07:37:42;11.27;;;6.43;;
21798;SDS011;24973;47.178;15.316;2023-04-07T07:40:31;7.23;;;4.60;;
21798;SDS011;24973;47.178;15.316;2023-04-07T07:43:22;8.20;;;4.57;;
21798;SDS011;24973;47.178;15.316;2023-04-07T07:46:11;5.10;;;3.57;;
21798;SDS011;24973;47.178;15.316;2023-04-07T07:49:00;4.83;;;4.10;;
21798;SDS011;24973;47.178;15.316;2023-04-07T07:51:50;7.20;;;4.93;;
21798;SDS011;24973;47.178;15.316;2023-04-07T07:54:39;6.27;;;4.37;;
21798;SDS011;24973;47.178;15.316;2023-04-07T07:57:28;5.83;;;4.17;;
21798;SDS011;24973;47.178;15.316;2023-04-07T08:00:19;5.63;;;4.30;;
21798;SDS011;24973;47.178;15.316;2023-04-07T08:03:09;6.43;;;3.80;;
21798;SDS011;24973;47.178;15.316;2023-04-07T08:05:58;5.17;;;3.73;;
21798;SDS011;24973;47.178;15.316;2023-04-07T08:08:47;5.43;;;3.47;;
21798;SDS011;24973;47.178;15.316;2023-04-07T08:11:37;4.10;;;2.90;;
21798;SDS011;24973;47.178;15.316;2023-04-07T08:14:26;3.93;;;2.97;;
21798;SDS011;24973;47.178;15.316;2023-04-07T08:17:16;5.13;;;2.90;;
21798;SDS011;24973;47.178;15.316;2023-04-07T08:20:05;3.63;;;3.13;;
21798;SDS011;24973;47.178;15.316;2023-04-07T08:22:56;3.50;;;3.00;;
21798;SDS011;24973;47.178;15.316;2023-04-07T08:25:45;3.87;;;3.43;;
21798;SDS011;24973;47.178;15.316;2023-04-07T08:28:34;4.50;;;3.17;;
21798;SDS011;24973;47.178;15.316;2023-04-07T08:31:23;6.00;;;3.17;;
21798;SDS011;24973;47.178;15.316;2023-04-07T08:34:14;5.53;;;3.63;;
21798;SDS011;24973;47.178;15.316;2023-04-07T08:37:04;5.20;;;3.70;;
21798;SDS011;24973;47.178;15.316;2023-04-07T08:39:55;4.20;;;3.50;;
21798;SDS011;24973;47.178;15.316;2023-04-07T08:42:45;3.87;;;2.73;;
21798;SDS011;24973;47.178;15.316;2023-04-07T08:45:35;8.17;;;3.20;;
21798;SDS011;24973;47.178;15.316;2023-04-07T08:48:28;3.97;;;3.53;;
21798;SDS011;24973;47.178;15.316;2023-04-07T08:51:22;4.13;;;3.60;;
21798;SDS011;24973;47.178;15.316;2023-04-07T08:54:17;4.17;;;2.50;;
21798;SDS011;24973;47.178;15.316;2023-04-07T08:57:07;4.07;;;3.73;;
21798;SDS011;24973;47.178;15.316;2023-04-07T08:59:58;5.17;;;2.60;;
21798;SDS011;24973;47.178;15.316;2023-04-07T09:02:51;4.63;;;3.87;;
21798;SDS011;24973;47.178;15.316;2023-04-07T09:05:40;3.57;;;3.20;;
21798;SDS011;24973;47.178;15.316;2023-04-07T09:08:31;7.83;;;4.07;;
21798;SDS011;24973;47.178;15.316;2023-04-07T09:11:20;4.20;;;3.50;;
21798;SDS011;24973;47.178;15.316;2023-04-07T09:14:09;5.37;;;3.00;;
21798;SDS011;24973;47.178;15.316;2023-04-07T09:16:57;8.27;;;3.23;;
21798;SDS011;24973;47.178;15.316;2023-04-07T09:19:47;5.53;;;2.50;;
21798;SDS011;24973;47.178;15.316;2023-04-07T09:22:36;3.57;;;3.07;;
21798;SDS011;24973;47.178;15.316;2023-04-07T09:25:30;4.43;;;3.50;;
21798;SDS011;24973;47.178;15.316;2023-04-07T09:28:19;3.33;;;2.80;;
21798;SDS011;24973;47.178;15.316;2023-04-07T09:31:08;2.70;;;2.50;;
21798;SDS011;24973;47.178;15.316;2023-04-07T09:33:57;3.57;;;2.53;;
21798;SDS011;24973;47.178;15.316;2023-04-07T09:36:46;2.33;;;2.13;;
21798;SDS011;24973;47.178;15.316;2023-04-07T09:39:47;3.50;;;2.67;;
21798;SDS011;24973;47.178;15.316;2023-04-07T09:42:45;7.03;;;3.13;;
21798;SDS011;24973;47.178;15.316;2023-04-07T09:45:35;2.93;;;2.23;;
21798;SDS011;24973;47.178;15.316;2023-04-07T09:48:24;4.67;;;2.33;;
21798;SDS011;24973;47.178;15.316;2023-04-07T09:51:13;2.47;;;2.00;;
21798;SDS011;24973;47.178;15.316;2023-04-07T09:54:03;3.93;;;2.33;;
21798;SDS011;24973;47.178;15.316;2023-04-07T09:56:53;1.90;;;1.80;;
21798;SDS011;24973;47.178;15.316;2023-04-07T09:59:45;2.90;;;2.30;;
21798;SDS011;24973;47.178;15.316;2023-04-07T10:02:35;2.77;;;2.27;;
21798;SDS011;24973;47.178;15.316;2023-04-07T10:05:25;4.00;;;2.73;;
21798;SDS011;24973;47.178;15.316;2023-04-07T10:08:14;3.80;;;2.50;;
21798;SDS011;24973;47.178;15.316;2023-04-07T10:11:04;3.27;;;2.60;;
21798;SDS011;24973;47.178;15.316;2023-04-07T10:13:53;4.27;;;2.40;;
21798;SDS011;24973;47.178;15.316;2023-04-07T10:16:44;4.23;;;2.33;;
21798;SDS011;24973;47.178;15.316;2023-04-07T10:19:34;2.90;;;2.60;;
21798;SDS011;24973;47.178;15.316;2023-04-07T10:22:23;3.87;;;2.47;;
21798;SDS011;24973;47.178;15.316;2023-04-07T10:25:15;3.73;;;2.20;;
21798;SDS011;24973;47.178;15.316;2023-04-07T10:28:07;2.57;;;2.37;;
21798;SDS011;24973;47.178;15.316;2023-04-07T10:30:58;5.13;;;3.20;;
21798;SDS011;24973;47.178;15.316;2023-04-07T10:33:49;3.43;;;2.60;;
21798;SDS011;24973;47.178;15.316;2023-04-07T10:37:07;4.07;;;3.07;;
21798;SDS011;24973;47.178;15.316;2023-04-07T10:43:35;2.97;;;2.40;;
21798;SDS011;24973;47.178;15.316;2023-04-07T10:46:25;2.87;;;2.57;;
21798;SDS011;24973;47.178;15.316;2023-04-07T10:53:06;2.57;;;2.30;;
21798;SDS011;24973;47.178;15.316;2023-04-07T10:55:56;3.27;;;2.13;;
21798;SDS011;24973;47.178;15.316;2023-04-07T10:58:45;2.70;;;2.50;;
21798;SDS011;24973;47.178;15.316;2023-04-07T11:01:34;2.30;;;2.10;;
21798;SDS011;24973;47.178;15.316;2023-04-07T11:04:23;4.70;;;2.40;;
21798;SDS011;24973;47.178;15.316;2023-04-07T11:07:13;2.80;;;2.30;;
21798;SDS011;24973;47.178;15.316;2023-04-07T11:10:10;3.10;;;2.67;;
21798;SDS011;24973;47.178;15.316;2023-04-07T11:13:05;2.50;;;2.30;;
21798;SDS011;24973;47.178;15.316;2023-04-07T11:15:55;4.07;;;3.03;;
21798;SDS011;24973;47.178;15.316;2023-04-07T11:18:45;2.40;;;2.10;;
21798;SDS011;24973;47.178;15.316;2023-04-07T11:21:34;3.77;;;2.60;;
21798;SDS011;24973;47.178;15.316;2023-04-07T11:24:34;2.37;;;1.93;;
21798;SDS011;24973;47.178;15.316;2023-04-07T11:27:24;2.53;;;2.33;;
21798;SDS011;24973;47.178;15.316;2023-04-07T11:30:14;1.97;;;1.87;;
21798;SDS011;24973;47.178;15.316;2023-04-07T11:33:04;3.50;;;2.80;;
21798;SDS011;24973;47.178;15.316;2023-04-07T11:35:55;2.60;;;2.40;;
21798;SDS011;24973;47.178;15.316;2023-04-07T11:38:47;2.40;;;2.20;;
21798;SDS011;24973;47.178;15.316;2023-04-07T11:41:44;2.50;;;2.13;;
21798;SDS011;24973;47.178;15.316;2023-04-07T11:44:34;2.70;;;2.03;;
21798;SDS011;24973;47.178;15.316;2023-04-07T11:47:34;6.03;;;2.40;;
21798;SDS011;24973;47.178;15.316;2023-04-07T11:50:38;3.90;;;2.50;;
21798;SDS011;24973;47.178;15.316;2023-04-07T11:53:28;4.07;;;2.20;;
21798;SDS011;24973;47.178;15.316;2023-04-07T11:56:20;3.13;;;2.93;;
21798;SDS011;24973;47.178;15.316;2023-04-07T11:59:18;2.03;;;1.83;;
21798;SDS011;24973;47.178;15.316;2023-04-07T12:02:08;2.73;;;2.17;;
21798;SDS011;24973;47.178;15.316;2023-04-07T12:04:57;3.27;;;2.13;;
21798;SDS011;24973;47.178;15.316;2023-04-07T12:07:51;3.63;;;2.90;;
21798;SDS011;24973;47.178;15.316;2023-04-07T12:10:41;2.23;;;2.03;;
21798;SDS011;24973;47.178;15.316;2023-04-07T12:13:30;2.53;;;2.20;;
21798;SDS011;24973;47.178;15.316;2023-04-07T12:16:20;3.30;;;2.00;;
21798;SDS011;24973;47.178;15.316;2023-04-07T12:19:09;3.27;;;1.80;;
21798;SDS011;24973;47.178;15.316;2023-04-07T12:21:57;2.57;;;2.37;;
21798;SDS011;24973;47.178;15.316;2023-04-07T12:24:46;3.67;;;2.90;;
21798;SDS011;24973;47.178;15.316;2023-04-07T12:27:35;2.90;;;2.53;;
21798;SDS011;24973;47.178;15.316;2023-04-07T12:30:28;2.80;;;2.27;;
21798;SDS011;24973;47.178;15.316;2023-04-07T12:33:18;2.97;;;2.10;;
21798;SDS011;24973;47.178;15.316;2023-04-07T12:36:06;2.87;;;2.07;;
21798;SDS011;24973;47.178;15.316;2023-04-07T12:38:55;3.07;;;2.30;;
21798;SDS011;24973;47.178;15.316;2023-04-07T12:41:44;4.40;;;2.17;;
21798;SDS011;24973;47.178;15.316;2023-04-07T12:44:34;2.63;;;2.30;;
21798;SDS011;24973;47.178;15.316;2023-04-07T12:47:22;2.27;;;2.13;;
21798;SDS011;24973;47.178;15.316;2023-04-07T12:50:12;2.93;;;2.50;;
21798;SDS011;24973;47.178;15.316;2023-04-07T12:53:02;5.87;;;3.67;;
21798;SDS011;24973;47.178;15.316;2023-04-07T12:55:50;2.20;;;2.00;;
21798;SDS011;24973;47.178;15.316;2023-04-07T12:58:39;2.17;;;1.97;;
21798;SDS011;24973;47.178;15.316;2023-04-07T13:01:28;3.30;;;3.00;;
21798;SDS011;24973;47.178;15.316;2023-04-07T13:04:17;3.00;;;2.30;;
21798;SDS011;24973;47.178;15.316;2023-04-07T13:07:07;3.17;;;2.37;;
21798;SDS011;24973;47.178;15.316;2023-04-07T13:09:56;2.50;;;2.03;;
21798;SDS011;24973;47.178;15.316;2023-04-07T13:12:44;2.47;;;2.27;;
21798;SDS011;24973;47.178;15.316;2023-04-07T13:15:33;4.23;;;2.10;;
21798;SDS011;24973;47.178;15.316;2023-04-07T13:18:22;2.37;;;2.17;;
21798;SDS011;24973;47.178;15.316;2023-04-07T13:21:11;2.20;;;2.00;;
21798;SDS011;24973;47.178;15.316;2023-04-07T13:24:04;2.40;;;2.20;;
21798;SDS011;24973;47.178;15.316;2023-04-07T13:26:53;3.20;;;2.63;;
21798;SDS011;24973;47.178;15.316;2023-04-07T13:29:43;3.60;;;2.20;;
21798;SDS011;24973;47.178;15.316;2023-04-07T13:32:31;3.27;;;2.00;;
21798;SDS011;24973;47.178;15.316;2023-04-07T13:35:20;3.13;;;2.10;;
21798;SDS011;24973;47.178;15.316;2023-04-07T13:38:09;1.90;;;1.77;;
21798;SDS011;24973;47.178;15.316;2023-04-07T13:41:00;2.00;;;1.63;;
21798;SDS011;24973;47.178;15.316;2023-04-07T13:43:50;6.30;;;2.17;;
21798;SDS011;24973;47.178;15.316;2023-04-07T13:46:39;7.13;;;4.37;;
21798;SDS011;24973;47.178;15.316;2023-04-07T13:49:27;7.40;;;4.73;;
21798;SDS011;24973;47.178;15.316;2023-04-07T13:52:16;9.17;;;4.93;;
21798;SDS011;24973;47.178;15.316;2023-04-07T13:55:05;6.37;;;4.57;;
21798;SDS011;24973;47.178;15.316;2023-04-07T13:57:56;4.80;;;4.03;;
21798;SDS011;24973;47.178;15.316;2023-04-07T14:00:45;6.47;;;4.43;;
21798;SDS011;24973;47.178;15.316;2023-04-07T14:03:34;7.67;;;4.70;;
21798;SDS011;24973;47.178;15.316;2023-04-07T14:06:22;9.30;;;4.57;;
21798;SDS011;24973;47.178;15.316;2023-04-07T14:09:12;7.00;;;4.57;;
21798;SDS011;24973;47.178;15.316;2023-04-07T14:12:01;8.23;;;5.33;;
21798;SDS011;24973;47.178;15.316;2023-04-07T14:14:51;6.23;;;4.63;;
21798;SDS011;24973;47.178;15.316;2023-04-07T14:17:40;7.77;;;5.90;;
21798;SDS011;24973;47.178;15.316;2023-04-07T14:20:29;7.23;;;4.50;;
21798;SDS011;24973;47.178;15.316;2023-04-07T14:23:17;5.40;;;3.90;;
21798;SDS011;24973;47.178;15.316;2023-04-07T14:26:12;9.07;;;4.93;;
21798;SDS011;24973;47.178;15.316;2023-04-07T14:29:00;7.90;;;5.93;;
21798;SDS011;24973;47.178;15.316;2023-04-07T14:31:51;6.20;;;4.97;;
21798;SDS011;24973;47.178;15.316;2023-04-07T14:34:39;6.80;;;4.80;;
21798;SDS011;24973;47.178;15.316;2023-04-07T14:37:28;9.10;;;4.67;;
21798;SDS011;24973;47.178;15.316;2023-04-07T14:40:17;6.10;;;4.90;;
21798;SDS011;24973;47.178;15.316;2023-04-07T14:43:06;6.50;;;5.07;;
21798;SDS011;24973;47.178;15.316;2023-04-07T14:45:56;5.77;;;5.03;;
21798;SDS011;24973;47.178;15.316;2023-04-07T14:48:46;6.83;;;5.10;;
21798;SDS011;24973;47.178;15.316;2023-04-07T14:51:36;6.73;;;4.70;;
21798;SDS011;24973;47.178;15.316;2023-04-07T14:54:25;8.70;;;4.77;;
21798;SDS011;24973;47.178;15.316;2023-04-07T14:57:13;6.97;;;4.87;;
21798;SDS011;24973;47.178;15.316;2023-04-07T15:00:03;7.07;;;5.30;;
21798;SDS011;24973;47.178;15.316;2023-04-07T15:02:54;7.20;;;4.60;;
21798;SDS011;24973;47.178;15.316;2023-04-07T15:05:44;6.23;;;4.63;;
21798;SDS011;24973;47.178;15.316;2023-04-07T15:08:33;6.43;;;5.00;;
21798;SDS011;24973;47.178;15.316;2023-04-07T15:11:22;5.43;;;4.93;;
21798;SDS011;24973;47.178;15.316;2023-04-07T15:14:10;6.20;;;5.60;;
21798;SDS011;24973;47.178;15.316;2023-04-07T15:16:59;7.03;;;5.20;;
21798;SDS011;24973;47.178;15.316;2023-04-07T15:19:48;6.30;;;4.80;;
21798;SDS011;24973;47.178;15.316;2023-04-07T15:22:38;4.97;;;4.37;;
21798;SDS011;24973;47.178;15.316;2023-04-07T15:25:27;6.80;;;5.20;;
21798;SDS011;24973;47.178;15.316;2023-04-07T15:28:15;7.27;;;4.70;;
21798;SDS011;24973;47.178;15.316;2023-04-07T15:31:04;7.73;;;5.30;;
21798;SDS011;24973;47.178;15.316;2023-04-07T15:33:54;5.47;;;4.57;;
21798;SDS011;24973;47.178;15.316;2023-04-07T15:36:43;6.43;;;5.10;;
21798;SDS011;24973;47.178;15.316;2023-04-07T15:39:33;6.83;;;5.90;;
21798;SDS011;24973;47.178;15.316;2023-04-07T15:42:22;6.70;;;5.27;;
21798;SDS011;24973;47.178;15.316;2023-04-07T15:45:10;7.37;;;5.80;;
21798;SDS011;24973;47.178;15.316;2023-04-07T15:47:59;7.33;;;4.83;;
21798;SDS011;24973;47.178;15.316;2023-04-07T15:50:48;5.83;;;4.93;;
21798;SDS011;24973;47.178;15.316;2023-04-07T15:53:37;6.73;;;5.33;;
21798;SDS011;24973;47.178;15.316;2023-04-07T15:56:27;7.70;;;6.23;;
21798;SDS011;24973;47.178;15.316;2023-04-07T15:59:16;6.57;;;5.87;;
21798;SDS011;24973;47.178;15.316;2023-04-07T16:02:05;8.03;;;6.13;;
21798;SDS011;24973;47.178;15.316;2023-04-07T16:04:54;7.67;;;6.30;;
21798;SDS011;24973;47.178;15.316;2023-04-07T16:07:43;9.33;;;6.87;;
21798;SDS011;24973;47.178;15.316;2023-04-07T16:10:32;8.63;;;6.57;;
21798;SDS011;24973;47.178;15.316;2023-04-07T16:13:22;10.87;;;7.23;;
21798;SDS011;24973;47.178;15.316;2023-04-07T16:16:11;11.40;;;6.93;;
21798;SDS011;24973;47.178;15.316;2023-04-07T16:18:59;9.53;;;6.60;;
21798;SDS011;24973;47.178;15.316;2023-04-07T16:21:48;9.17;;;7.00;;
21798;SDS011;24973;47.178;15.316;2023-04-07T16:24:37;15.30;;;6.77;;
21798;SDS011;24973;47.178;15.316;2023-04-07T16:27:26;7.37;;;6.27;;
21798;SDS011;24973;47.178;15.316;2023-04-07T16:30:16;13.37;;;7.10;;
21798;SDS011;24973;47.178;15.316;2023-04-07T16:33:07;9.67;;;6.70;;
21798;SDS011;24973;47.178;15.316;2023-04-07T16:35:56;12.27;;;5.80;;
21798;SDS011;24973;47.178;15.316;2023-04-07T16:38:44;10.67;;;6.37;;
21798;SDS011;24973;47.178;15.316;2023-04-07T16:41:34;11.70;;;7.03;;
21798;SDS011;24973;47.178;15.316;2023-04-07T16:44:23;12.77;;;8.37;;
21798;SDS011;24973;47.178;15.316;2023-04-07T16:47:13;16.13;;;6.93;;
21798;SDS011;24973;47.178;15.316;2023-04-07T16:50:02;10.23;;;6.73;;
21798;SDS011;24973;47.178;15.316;2023-04-07T16:52:51;9.63;;;6.70;;
21798;SDS011;24973;47.178;15.316;2023-04-07T16:55:42;8.87;;;6.73;;